Time;durP1;ratioP1;P1;durP2;ratioP2;P2;SDS_P1;SDS_P2;PMS_P1;PMS_P2;Temp;Humidity;BMP_temperature;BMP_pressure;BME280_temperature;BME280_humidity;BME280_pressure;Samples;Min_cycle;Max_cycle;Signal;HPM_P1;HPM_P2
2022/12/31 00:01:06;;;;;;;78.03;52.83;;;;;;;6.49;59.28;102203.06;5052786;28;20411;-73
2022/12/31 00:03:32;;;;;;;104.18;65.50;;;;;;;6.47;59.51;102212.88;5052670;28;20475;-74
2022/12/31 00:05:57;;;;;;;80.75;52.88;;;;;;;6.41;59.62;102209.81;5051657;28;20380;-74
2022/12/31 00:08:23;;;;;;;83.60;51.60;;;;;;;6.40;59.89;102219.50;5052027;28;20377;-73
2022/12/31 00:10:48;;;;;;;81.50;54.13;;;;;;;6.39;59.99;102222.25;5052642;28;20385;-74
2022/12/31 00:13:14;;;;;;;73.03;51.15;;;;;;;6.40;59.73;102227.41;5052311;28;20412;-73
2022/12/31 00:15:41;;;;;;;64.18;43.78;;;;;;;6.32;60.07;102227.94;5050731;28;20412;-73
2022/12/31 00:18:08;;;;;;;68.28;45.20;;;;;;;6.32;60.21;102230.59;5052431;28;20373;-74
2022/12/31 00:20:33;;;;;;;59.83;41.70;;;;;;;6.41;60.26;102228.25;5052155;28;20463;-74
2022/12/31 00:22:59;;;;;;;64.78;43.58;;;;;;;6.51;60.19;102239.84;5052079;28;20384;-73
2022/12/31 00:25:24;;;;;;;61.10;42.93;;;;;;;6.67;59.61;102235.19;5051685;28;20373;-73
2022/12/31 00:27:50;;;;;;;61.17;41.93;;;;;;;6.71;59.51;102235.81;5051897;28;20380;-74
2022/12/31 00:30:16;;;;;;;63.93;41.07;;;;;;;6.72;59.49;102234.03;5051922;28;20395;-73
2022/12/31 00:32:41;;;;;;;60.35;41.40;;;;;;;6.72;59.45;102234.03;5051952;28;20538;-74
2022/12/31 00:35:07;;;;;;;60.42;42.33;;;;;;;6.73;59.18;102241.81;5051977;28;20411;-74
2022/12/31 00:37:32;;;;;;;66.07;42.97;;;;;;;6.77;58.95;102242.47;5052251;28;20384;-74
2022/12/31 00:39:58;;;;;;;66.20;44.90;;;;;;;6.79;59.09;102240.56;5052083;28;20849;-74
2022/12/31 00:42:23;;;;;;;72.40;46.87;;;;;;;6.87;58.60;102244.34;5051738;28;20733;-73
2022/12/31 00:44:49;;;;;;;72.53;48.03;;;;;;;6.91;58.35;102254.69;5051094;28;20484;-73
2022/12/31 00:47:14;;;;;;;69.53;44.93;;;;;;;6.85;58.22;102238.34;5051894;28;20893;-73
2022/12/31 00:49:40;;;;;;;64.73;43.90;;;;;;;6.90;58.50;102253.84;5051900;28;20401;-73
2022/12/31 00:52:05;;;;;;;69.72;47.95;;;;;;;6.95;58.34;102264.91;5055205;28;20793;-74
2022/12/31 00:54:31;;;;;;;80.22;52.47;;;;;;;6.89;58.09;102262.69;5051458;28;20889;-73
2022/12/31 00:56:56;;;;;;;77.07;50.23;;;;;;;6.89;57.90;102271.44;5050475;28;20380;-73
2022/12/31 00:59:22;;;;;;;76.73;51.53;;;;;;;6.93;57.99;102269.41;5051701;28;20380;-72
2022/12/31 01:01:48;;;;;;;80.72;52.65;;;;;;;6.92;57.69;102274.84;5051617;28;20741;-73
2022/12/31 01:04:17;;;;;;;92.55;58.28;;;;;;;6.84;57.91;102265.66;5051889;28;20384;-73
2022/12/31 01:06:43;;;;;;;87.17;57.50;;;;;;;6.86;57.70;102274.31;5051436;28;20838;-72
2022/12/31 01:09:10;;;;;;;100.73;61.43;;;;;;;6.89;57.58;102270.59;5053521;28;20388;-73
2022/12/31 01:11:36;;;;;;;98.82;63.08;;;;;;;6.83;57.19;102271.88;5052895;28;20380;-73
2022/12/31 01:14:07;;;;;;;99.78;61.97;;;;;;;6.78;57.14;102276.63;5051757;28;20389;-73
2022/12/31 01:16:42;;;;;;;102.35;63.75;;;;;;;6.73;57.13;102288.44;5051657;28;21109;-73
2022/12/31 01:19:10;;;;;;;105.53;68.78;;;;;;;6.61;57.19;102285.69;5051239;28;20480;-73
2022/12/31 01:21:37;;;;;;;109.95;70.72;;;;;;;6.57;57.37;102288.63;5051076;28;20379;-73
2022/12/31 01:24:04;;;;;;;117.13;75.60;;;;;;;6.51;57.52;102274.94;5050512;28;20390;-73
2022/12/31 01:26:29;;;;;;;114.78;73.05;;;;;;;6.48;57.54;102279.56;5050416;28;20380;-73
2022/12/31 01:28:55;;;;;;;124.13;80.35;;;;;;;6.41;57.40;102279.16;5050629;28;20475;-73
2022/12/31 01:31:22;;;;;;;122.78;78.75;;;;;;;6.40;57.49;102292.44;5050861;28;20380;-73
2022/12/31 01:33:48;;;;;;;153.93;95.43;;;;;;;6.35;57.41;102289.25;5050034;28;20381;-73
2022/12/31 01:36:16;;;;;;;134.52;84.20;;;;;;;6.41;57.35;102294.97;5050725;28;20698;-73
2022/12/31 01:38:42;;;;;;;122.75;80.03;;;;;;;6.39;57.37;102288.09;5050113;28;20926;-73
2022/12/31 01:41:15;;;;;;;125.00;79.20;;;;;;;6.40;57.44;102288.00;5050738;28;20384;-73
2022/12/31 01:43:48;;;;;;;127.25;81.55;;;;;;;6.35;57.63;102289.25;5050228;28;20388;-74
2022/12/31 01:46:24;;;;;;;117.85;79.10;;;;;;;6.36;57.65;102289.16;5050955;28;20456;-73
2022/12/31 01:48:53;;;;;;;116.72;77.10;;;;;;;6.27;57.85;102274.81;5050818;28;20975;-72
2022/12/31 01:51:19;;;;;;;112.28;72.82;;;;;;;6.37;57.30;102282.09;5051054;28;20380;-73
2022/12/31 01:53:45;;;;;;;114.40;74.73;;;;;;;6.34;57.42;102275.25;5050492;28;20384;-73
2022/12/31 01:56:11;;;;;;;120.57;74.22;;;;;;;6.30;57.54;102277.25;5050578;28;20400;-73
2022/12/31 01:58:41;;;;;;;105.68;69.53;;;;;;;6.30;57.58;102273.75;5050728;28;20408;-72
2022/12/31 02:01:08;;;;;;;103.25;66.40;;;;;;;6.31;57.94;102273.66;5050943;28;20395;-73
2022/12/31 02:03:34;;;;;;;90.88;61.00;;;;;;;6.23;57.63;102268.06;5050674;28;20376;-73
2022/12/31 02:06:09;;;;;;;89.75;61.25;;;;;;;6.18;58.07;102271.97;5050539;28;20383;-73
2022/12/31 02:08:36;;;;;;;92.53;62.78;;;;;;;6.16;57.83;102265.94;5050661;28;20744;-74
2022/12/31 02:11:19;;;;;;;89.50;61.10;;;;;;;6.13;57.64;102261.72;5050714;28;20464;-73
2022/12/31 02:13:45;;;;;;;90.90;61.75;;;;;;;6.09;57.78;102265.53;5050469;28;20380;-73
2022/12/31 02:16:28;;;;;;;82.40;55.70;;;;;;;6.07;57.58;102265.63;5050289;28;20484;-73
2022/12/31 02:19:35;;;;;;;89.37;60.60;;;;;;;6.07;57.49;102283.22;5050497;28;20518;-73
2022/12/31 02:22:48;;;;;;;85.88;59.90;;;;;;;5.92;57.59;102271.84;5049952;28;20479;-73
2022/12/31 02:25:16;;;;;;;88.97;61.17;;;;;;;5.94;58.27;102277.88;5014709;28;20477;-73
2022/12/31 02:28:16;;;;;;;93.18;65.40;;;;;;;5.82;58.50;102279.53;5049797;28;20752;-73
2022/12/31 02:30:44;;;;;;;90.55;63.30;;;;;;;5.61;58.83;102287.00;5051049;28;20829;-74
2022/12/31 02:33:32;;;;;;;96.80;67.47;;;;;;;5.43;59.29;102289.03;5051302;28;20765;-74
2022/12/31 02:36:11;;;;;;;99.03;65.95;;;;;;;5.26;60.10;102292.75;5053002;28;20415;-74
2022/12/31 02:38:41;;;;;;;99.40;67.00;;;;;;;5.11;61.17;102291.94;5052209;28;20400;-74
2022/12/31 02:41:48;;;;;;;97.90;66.43;;;;;;;5.27;60.77;102293.56;5052580;28;20463;-74
2022/12/31 02:44:00;;;;;;;93.30;64.32;;;;;;;5.56;59.43;102291.72;5051140;28;20389;-73
2022/12/31 02:46:43;;;;;;;91.93;63.17;;;;;;;5.69;59.05;102310.19;5050809;28;20438;-74
2022/12/31 02:49:55;;;;;;;94.05;62.67;;;;;;;5.66;58.79;102307.78;5051044;28;20368;-73
2022/12/31 02:52:58;;;;;;;98.75;65.20;;;;;;;5.59;58.48;102303.84;5019114;28;20818;-73
2022/12/31 02:55:26;;;;;;;103.50;63.50;;;;;;;5.67;58.47;102307.69;5053094;28;20409;-73
2022/12/31 02:58:01;;;;;;;99.82;63.45;;;;;;;5.75;58.16;102301.91;5058035;28;20372;-74
2022/12/31 03:03:16;;;;;;;98.85;62.58;;;;;;;5.85;58.05;102289.88;5054559;28;20411;-73
2022/12/31 03:05:43;;;;;;;101.23;64.07;;;;;;;5.85;57.71;102295.13;5054489;28;20399;-73
2022/12/31 03:08:09;;;;;;;158.55;96.30;;;;;;;5.75;58.26;102305.38;5053939;28;20376;-73
2022/12/31 03:10:35;;;;;;;139.43;90.97;;;;;;;5.77;58.19;102297.41;5054550;28;20743;-73
2022/12/31 03:13:01;;;;;;;103.57;76.10;;;;;;;5.85;57.87;102296.88;5054154;28;20850;-72
2022/12/31 03:15:30;;;;;;;106.68;78.93;;;;;;;5.87;57.42;102290.59;5054139;28;20504;-74
2022/12/31 03:18:16;;;;;;;102.97;75.10;;;;;;;5.89;57.29;102293.97;5054072;28;20368;-73
2022/12/31 03:23:37;;;;;;;122.70;97.72;;;;;;;5.90;57.45;102285.13;5054350;28;20839;-73
2022/12/31 03:26:09;;;;;;;103.80;74.07;;;;;;;5.90;57.63;102290.38;5054064;28;20372;-73
2022/12/31 03:28:36;;;;;;;102.38;74.07;;;;;;;5.87;57.28;102293.22;5054041;28;20373;-74
2022/12/31 03:31:02;;;;;;;131.38;88.47;;;;;;;5.93;57.40;102302.50;5053988;28;20380;-74
2022/12/31 03:33:46;;;;;;;112.75;83.60;;;;;;;5.87;57.09;102301.13;5054260;28;20364;-74
2022/12/31 03:36:13;;;;;;;102.67;80.30;;;;;;;5.90;57.42;102307.97;5053614;28;20411;-72
2022/12/31 03:38:39;;;;;;;92.20;67.82;;;;;;;5.85;57.53;102310.91;5052796;28;20377;-73
2022/12/31 03:41:05;;;;;;;89.93;64.67;;;;;;;5.75;57.27;102310.66;5053927;28;20475;-73
2022/12/31 03:43:30;;;;;;;86.43;64.37;;;;;;;5.71;57.23;102310.97;5053226;28;20384;-73
2022/12/31 03:45:58;;;;;;;89.20;69.83;;;;;;;5.75;57.44;102317.72;5051622;28;20849;-73
2022/12/31 03:48:24;;;;;;;85.82;64.75;;;;;;;5.77;57.71;102318.44;5052298;28;20381;-73
2022/12/31 03:50:50;;;;;;;85.25;59.65;;;;;;;5.77;57.23;102321.09;5051757;28;20902;-73
2022/12/31 03:53:15;;;;;;;87.17;61.00;;;;;;;5.66;57.88;102318.31;5052898;28;20443;-73
2022/12/31 03:55:41;;;;;;;78.77;58.27;;;;;;;5.58;57.43;102326.66;5051411;28;20486;-73
2022/12/31 03:58:06;;;;;;;87.93;60.47;;;;;;;5.34;58.11;102340.41;5052730;28;20373;-73
2022/12/31 04:00:32;;;;;;;113.63;69.53;;;;;;;4.81;60.50;102348.97;5052815;28;20419;-73
2022/12/31 04:02:58;;;;;;;116.87;70.17;;;;;;;4.66;60.53;102348.94;5056510;28;20361;-73
2022/12/31 04:05:24;;;;;;;119.30;66.80;;;;;;;4.50;60.02;102369.16;5061131;28;20743;-73
2022/12/31 04:07:51;;;;;;;101.15;51.95;;;;;;;4.02;60.91;102358.78;5059607;28;20372;-73
2022/12/31 04:10:17;;;;;;;100.50;52.10;;;;;;;3.92;61.72;102368.94;5060808;28;20369;-72
2022/12/31 04:12:43;;;;;;;123.90;53.53;;;;;;;4.15;61.46;102372.88;5060437;28;20379;-72
2022/12/31 04:15:10;;;;;;;122.78;51.35;;;;;;;4.10;61.56;102376.72;5053248;28;20465;-72
2022/12/31 04:17:36;;;;;;;113.47;49.00;;;;;;;4.16;61.66;102374.59;5053068;28;20369;-72
2022/12/31 04:20:02;;;;;;;117.20;50.67;;;;;;;4.20;62.12;102385.75;5052863;28;20372;-72
2022/12/31 04:22:28;;;;;;;96.80;49.85;;;;;;;4.16;62.31;102382.47;5052291;28;20841;-73
2022/12/31 04:24:53;;;;;;;98.57;49.50;;;;;;;4.09;63.04;102381.13;5052956;28;20372;-73
2022/12/31 04:27:19;;;;;;;94.25;49.33;;;;;;;4.10;63.38;102377.53;5054480;28;20472;-73
2022/12/31 04:29:44;;;;;;;82.10;47.03;;;;;;;4.17;63.37;102378.88;5054799;28;20381;-74
2022/12/31 04:32:10;;;;;;;75.83;47.27;;;;;;;4.19;62.97;102379.63;5051252;28;20754;-73
2022/12/31 04:34:35;;;;;;;70.13;45.90;;;;;;;4.19;62.75;102376.19;5052342;28;20717;-73
2022/12/31 04:37:02;;;;;;;65.77;44.60;;;;;;;4.27;62.22;102386.22;5052277;28;20387;-73
2022/12/31 04:39:27;;;;;;;72.45;45.70;;;;;;;4.16;62.51;102384.22;5052307;28;20419;-73
2022/12/31 04:41:53;;;;;;;94.10;47.53;;;;;;;4.11;62.33;102389.75;5051861;28;20431;-73
2022/12/31 04:44:19;;;;;;;85.37;46.00;;;;;;;4.00;62.94;102392.13;5053703;28;20391;-73
2022/12/31 04:46:44;;;;;;;114.90;46.27;;;;;;;3.91;63.04;102388.25;5055341;28;20377;-73
2022/12/31 04:49:10;;;;;;;84.60;44.23;;;;;;;3.94;63.07;102387.22;5051751;28;20714;-73
2022/12/31 04:51:36;;;;;;;80.97;43.30;;;;;;;3.96;63.15;102386.22;5051155;28;20468;-74
2022/12/31 04:54:02;;;;;;;70.50;42.00;;;;;;;4.05;62.46;102389.25;5051121;28;20377;-73
2022/12/31 04:56:28;;;;;;;64.72;39.92;;;;;;;4.07;62.51;102398.72;5050822;28;20443;-74
2022/12/31 04:58:54;;;;;;;64.88;38.97;;;;;;;4.06;62.55;102394.41;5051306;28;20412;-73
2022/12/31 05:01:20;;;;;;;75.38;37.95;;;;;;;4.05;62.37;102397.94;5051777;28;20392;-73
2022/12/31 05:03:45;;;;;;;62.38;37.17;;;;;;;4.11;62.08;102381.88;5051008;28;20860;-73
2022/12/31 05:06:14;;;;;;;57.78;39.75;;;;;;;4.29;62.02;102390.47;5051318;28;20430;-73
2022/12/31 05:08:39;;;;;;;57.78;38.95;;;;;;;4.43;61.46;102396.72;5051586;28;20471;-73
2022/12/31 05:11:05;;;;;;;59.60;40.17;;;;;;;4.53;60.80;102395.25;5051623;28;20854;-74
2022/12/31 05:13:30;;;;;;;60.53;39.70;;;;;;;4.53;60.29;102405.75;5051742;28;20406;-74
2022/12/31 05:15:56;;;;;;;62.30;40.58;;;;;;;4.50;61.00;102411.19;5050254;28;20998;-74
2022/12/31 05:18:21;;;;;;;59.70;43.10;;;;;;;4.59;60.72;102406.25;5049932;28;20385;-74
2022/12/31 05:20:47;;;;;;;57.53;43.77;;;;;;;4.67;60.10;102403.16;5051363;28;20391;-74
2022/12/31 05:23:13;;;;;;;60.27;44.47;;;;;;;4.71;60.44;102411.72;5051166;28;20470;-73
2022/12/31 05:25:40;;;;;;;59.97;44.58;;;;;;;4.74;59.83;102409.75;5050957;28;20833;-74
2022/12/31 05:28:06;;;;;;;74.30;51.45;;;;;;;4.75;60.00;102414.09;5051259;28;20493;-73
2022/12/31 05:30:31;;;;;;;79.38;57.40;;;;;;;4.73;60.07;102417.72;5051461;28;20853;-73
2022/12/31 05:32:57;;;;;;;83.65;57.00;;;;;;;4.72;60.08;102424.78;5051262;28;20752;-73
2022/12/31 05:35:22;;;;;;;102.30;61.80;;;;;;;4.67;59.98;102442.56;5051444;28;20401;-73
2022/12/31 05:37:48;;;;;;;100.82;62.92;;;;;;;4.59;60.66;102439.53;5050969;28;20381;-73
2022/12/31 05:40:13;;;;;;;100.97;60.30;;;;;;;4.50;60.23;102438.31;5050468;28;20395;-73
2022/12/31 05:42:39;;;;;;;105.13;59.87;;;;;;;4.39;60.33;102440.69;5050935;28;20459;-72
2022/12/31 05:45:05;;;;;;;111.25;62.60;;;;;;;4.33;60.24;102446.28;5051012;28;20383;-73
2022/12/31 05:47:31;;;;;;;102.25;63.78;;;;;;;4.37;60.22;102461.75;5050472;28;20442;-73
2022/12/31 05:49:56;;;;;;;112.63;65.95;;;;;;;4.44;59.92;102456.19;5050393;28;20384;-73
2022/12/31 05:52:22;;;;;;;97.67;61.97;;;;;;;4.38;59.64;102460.00;5050602;28;20384;-73
2022/12/31 05:54:47;;;;;;;94.32;58.30;;;;;;;4.35;60.14;102461.00;5050666;28;20381;-74
2022/12/31 05:57:13;;;;;;;87.00;53.33;;;;;;;4.31;59.80;102462.13;5050486;28;20389;-72
2022/12/31 05:59:39;;;;;;;99.10;56.70;;;;;;;4.09;59.83;102472.09;5050916;28;20722;-74
2022/12/31 06:02:04;;;;;;;102.03;59.97;;;;;;;4.04;60.48;102469.75;5050194;28;20456;-73
2022/12/31 06:04:30;;;;;;;119.22;62.45;;;;;;;3.85;60.01;102476.91;5050826;28;20415;-73
2022/12/31 06:06:56;;;;;;;114.82;64.63;;;;;;;3.67;61.51;102482.22;5050414;28;20376;-73
2022/12/31 06:09:21;;;;;;;120.97;61.30;;;;;;;3.90;61.12;102485.38;5050349;28;20384;-73
2022/12/31 06:11:47;;;;;;;107.27;60.90;;;;;;;4.14;60.41;102478.81;5050564;28;20380;-73
2022/12/31 06:14:13;;;;;;;109.90;61.77;;;;;;;4.23;60.24;102480.06;5050730;28;20420;-73
2022/12/31 06:16:39;;;;;;;122.67;64.00;;;;;;;4.12;60.19;102475.41;5053289;28;20407;-73
2022/12/31 06:19:05;;;;;;;113.75;66.60;;;;;;;4.11;60.12;102476.34;5050513;28;20458;-74
2022/12/31 06:21:31;;;;;;;114.93;64.53;;;;;;;4.20;59.74;102480.25;5050303;28;20388;-74
2022/12/31 06:23:57;;;;;;;112.57;63.87;;;;;;;4.31;59.55;102485.75;5050228;28;20412;-75
2022/12/31 06:26:23;;;;;;;100.43;57.35;;;;;;;4.35;59.85;102489.88;5050424;28;20902;-75
2022/12/31 06:28:49;;;;;;;102.05;56.95;;;;;;;4.32;59.90;102490.06;5050834;28;20389;-74
2022/12/31 06:31:14;;;;;;;97.83;58.43;;;;;;;4.34;59.89;102487.34;5054641;28;20772;-74
2022/12/31 06:33:41;;;;;;;97.53;59.47;;;;;;;4.32;59.85;102478.72;5058204;28;20404;-73
2022/12/31 06:36:10;;;;;;;96.50;59.40;;;;;;;4.39;60.00;102483.56;5055092;28;20916;-73
2022/12/31 06:38:37;;;;;;;93.03;59.05;;;;;;;4.38;59.60;102483.63;5056162;28;20399;-73
2022/12/31 06:41:04;;;;;;;101.85;62.47;;;;;;;4.38;59.91;102487.09;5056082;28;20387;-74
2022/12/31 06:43:30;;;;;;;106.22;64.35;;;;;;;4.28;59.94;102496.41;5054297;28;20705;-73
2022/12/31 06:45:59;;;;;;;100.03;63.42;;;;;;;4.33;60.23;102490.91;5052945;28;20377;-73
2022/12/31 06:48:24;;;;;;;95.15;61.00;;;;;;;4.34;60.24;102492.59;5038580;28;20380;-73
2022/12/31 06:50:50;;;;;;;99.07;63.63;;;;;;;4.45;59.81;102497.25;5054383;28;20437;-74
2022/12/31 06:53:15;;;;;;;98.80;65.22;;;;;;;4.51;59.81;102487.25;5054466;28;20437;-73
2022/12/31 06:55:41;;;;;;;100.50;65.47;;;;;;;4.54;59.40;102494.13;5054241;28;20469;-73
2022/12/31 06:58:12;;;;;;;91.30;62.53;;;;;;;4.43;59.65;102480.72;5053916;28;20481;-74
2022/12/31 07:00:41;;;;;;;86.88;62.20;;;;;;;4.53;60.11;102490.63;5053933;28;20388;-74
2022/12/31 07:03:25;;;;;;;91.07;62.72;;;;;;;4.63;59.93;102488.34;5052620;28;20409;-74
2022/12/31 07:06:28;;;;;;;89.88;62.58;;;;;;;4.71;59.85;102496.63;5045278;28;20766;-74
2022/12/31 07:09:36;;;;;;;86.93;61.80;;;;;;;4.69;60.00;102495.03;5028888;28;20383;-75
2022/12/31 07:12:13;;;;;;;82.17;57.37;;;;;;;4.82;59.59;102510.94;5047397;28;20393;-75
2022/12/31 07:14:57;;;;;;;83.70;58.22;;;;;;;4.88;59.85;102511.44;5053494;28;20412;-75
2022/12/31 07:17:46;;;;;;;75.95;55.90;;;;;;;4.94;59.62;102510.22;5052979;28;20415;-74
2022/12/31 07:20:17;;;;;;;82.00;58.33;;;;;;;4.97;59.36;102520.56;5051244;28;20478;-74
2022/12/31 07:22:44;;;;;;;83.32;56.13;;;;;;;4.87;59.85;102514.97;5052174;28;20392;-74
2022/12/31 07:25:14;;;;;;;78.83;56.23;;;;;;;4.96;60.50;102516.25;5045894;28;20407;-74
2022/12/31 07:27:42;;;;;;;91.25;60.85;;;;;;;4.99;60.42;102526.59;5050946;28;21232;-74
2022/12/31 07:30:15;;;;;;;115.32;82.65;;;;;;;4.88;60.06;102526.34;5051115;28;20916;-75
2022/12/31 07:32:58;;;;;;;110.03;71.88;;;;;;;4.97;60.26;102528.47;5051339;28;20961;-74
2022/12/31 07:35:42;;;;;;;110.28;70.55;;;;;;;4.99;60.46;102526.59;5050342;28;20499;-74
2022/12/31 07:38:16;;;;;;;91.13;61.40;;;;;;;5.04;60.77;102524.53;5046320;28;20377;-74
2022/12/31 07:41:00;;;;;;;86.63;60.20;;;;;;;5.04;60.83;102535.06;5045356;28;20418;-74
2022/12/31 07:43:34;;;;;;;87.03;59.73;;;;;;;5.14;60.92;102532.72;5051634;28;20380;-75
2022/12/31 07:46:11;;;;;;;112.18;72.13;;;;;;;5.23;60.21;102531.34;5051625;28;20381;-73
2022/12/31 07:48:36;;;;;;;105.25;70.57;;;;;;;5.27;60.91;102544.19;5043324;28;20401;-75
2022/12/31 07:51:02;;;;;;;111.97;68.68;;;;;;;5.17;61.08;102551.78;5048550;28;20392;-74
2022/12/31 07:53:28;;;;;;;104.03;64.45;;;;;;;5.11;61.45;102549.53;5052338;28;20393;-74
2022/12/31 07:55:59;;;;;;;99.35;61.30;;;;;;;5.15;61.03;102558.94;5052459;28;20397;-74
2022/12/31 07:58:43;;;;;;;111.25;56.30;;;;;;;5.13;61.79;102555.53;5035368;28;20424;-74
2022/12/31 08:01:11;;;;;;;94.57;51.97;;;;;;;5.19;61.92;102558.75;5047460;28;20831;-74
2022/12/31 08:04:04;;;;;;;87.80;50.72;;;;;;;5.21;61.72;102560.34;5052846;28;20392;-74
2022/12/31 08:07:02;;;;;;;95.68;49.80;;;;;;;5.26;61.74;102550.41;5038592;28;20388;-74
2022/12/31 08:10:07;;;;;;;82.85;53.28;;;;;;;5.36;61.81;102546.28;5052232;28;20411;-73
2022/12/31 08:12:36;;;;;;;89.07;52.33;;;;;;;5.39;61.78;102549.69;5050625;28;20405;-73
2022/12/31 08:15:10;;;;;;;81.90;49.73;;;;;;;5.38;61.79;102548.81;5051924;28;20427;-75
2022/12/31 08:17:36;;;;;;;93.50;56.35;;;;;;;5.32;61.64;102554.47;5052120;28;20396;-74
2022/12/31 08:20:03;;;;;;;90.53;53.47;;;;;;;5.39;62.25;102555.78;5066979;28;20393;-73
2022/12/31 08:22:37;;;;;;;107.03;68.68;;;;;;;5.48;62.08;102551.78;5049617;28;20893;-74
2022/12/31 08:25:02;;;;;;;72.72;48.90;;;;;;;5.64;61.83;102556.97;5049424;28;20389;-75
2022/12/31 08:27:41;;;;;;;67.97;46.03;;;;;;;5.75;61.60;102559.78;5050274;28;20924;-73
2022/12/31 08:33:17;;;;;;;61.80;44.83;;;;;;;5.66;61.67;102565.63;5048130;28;20395;-74
2022/12/31 08:35:54;;;;;;;66.22;46.40;;;;;;;5.64;61.64;102570.97;5049119;28;20515;-74
2022/12/31 08:38:49;;;;;;;65.75;47.97;;;;;;;5.80;61.64;102564.75;5048371;28;20395;-75
2022/12/31 08:41:14;;;;;;;69.40;48.97;;;;;;;5.94;61.86;102568.25;5041533;28;20761;-74
2022/12/31 08:43:52;;;;;;;73.30;50.92;;;;;;;6.08;61.65;102561.31;5050812;28;20392;-75
2022/12/31 08:46:47;;;;;;;72.60;51.40;;;;;;;6.18;61.25;102559.81;5046578;28;20391;-74
2022/12/31 08:49:13;;;;;;;75.38;53.45;;;;;;;6.23;60.90;102562.16;5049697;28;20392;-73
2022/12/31 08:51:39;;;;;;;72.53;52.47;;;;;;;6.32;60.87;102567.72;5050120;28;20454;-74
2022/12/31 08:54:05;;;;;;;77.43;52.67;;;;;;;6.37;60.54;102567.41;5048115;28;20389;-74
2022/12/31 08:56:39;;;;;;;65.03;48.80;;;;;;;6.45;60.90;102580.94;5048415;28;20500;-73
2022/12/31 08:59:14;;;;;;;68.72;52.78;;;;;;;6.44;60.73;102588.94;5046767;28;21297;-75
2022/12/31 09:02:17;;;;;;;65.32;47.65;;;;;;;6.49;60.84;102584.22;5047042;28;20772;-74
2022/12/31 09:04:45;;;;;;;71.53;53.50;;;;;;;6.49;61.41;102584.22;5047038;28;20718;-74
2022/12/31 09:07:12;;;;;;;89.80;60.65;;;;;;;6.50;61.48;102593.84;5047127;28;20388;-74
2022/12/31 09:09:59;;;;;;;98.50;62.88;;;;;;;6.65;61.38;102581.47;5047644;28;20733;-73
2022/12/31 09:12:41;;;;;;;87.57;58.58;;;;;;;6.64;61.21;102577.97;5048676;28;20396;-74
2022/12/31 09:15:18;;;;;;;89.70;61.70;;;;;;;6.83;61.37;102576.81;5049594;28;20915;-74
2022/12/31 09:17:51;;;;;;;90.70;62.60;;;;;;;7.04;60.77;102575.41;5048243;28;20424;-74
2022/12/31 09:20:28;;;;;;;103.03;70.97;;;;;;;7.13;60.57;102567.81;5049042;28;20456;-74
2022/12/31 09:22:56;;;;;;;101.65;70.88;;;;;;;7.24;60.31;102566.16;5050144;28;20381;-74
2022/12/31 09:25:23;;;;;;;99.53;69.97;;;;;;;7.28;60.85;102558.91;5050762;28;20433;-74
2022/12/31 09:28:12;;;;;;;95.23;67.30;;;;;;;7.28;60.69;102562.38;5050488;28;20368;-75
2022/12/31 09:31:13;;;;;;;98.75;68.80;;;;;;;7.33;60.87;102554.16;5050398;28;20377;-75
2022/12/31 09:34:12;;;;;;;104.25;71.38;;;;;;;7.59;60.12;102555.00;5045445;28;20408;-74
2022/12/31 09:36:47;;;;;;;99.75;69.50;;;;;;;7.81;59.80;102554.41;5046035;28;20493;-75
2022/12/31 09:39:19;;;;;;;106.38;73.07;;;;;;;7.79;59.53;102543.06;5051718;28;20874;-74
2022/12/31 09:42:04;;;;;;;101.47;70.35;;;;;;;8.00;59.50;102537.25;5056334;28;20392;-74
2022/12/31 09:45:04;;;;;;;105.78;74.38;;;;;;;8.19;59.52;102536.78;5055244;28;20464;-75
2022/12/31 09:47:55;;;;;;;108.05;71.43;;;;;;;8.31;59.10;102535.91;5069933;28;20389;-75
2022/12/31 09:50:32;;;;;;;103.70;71.32;;;;;;;8.35;59.26;102523.31;5048676;28;20427;-74
2022/12/31 09:53:13;;;;;;;104.55;70.60;;;;;;;8.48;58.91;102539.16;5057164;28;20381;-75
2022/12/31 09:56:02;;;;;;;104.05;73.13;;;;;;;8.58;58.68;102530.44;5048392;28;20408;-73
2022/12/31 09:58:55;;;;;;;103.80;70.32;;;;;;;8.71;59.15;102529.56;5049390;28;20825;-75
2022/12/31 10:01:45;;;;;;;90.35;65.80;;;;;;;8.78;58.88;102522.84;5047110;28;20491;-73
2022/12/31 10:04:29;;;;;;;93.22;64.32;;;;;;;8.94;58.36;102515.47;5046829;28;20387;-74
2022/12/31 10:07:30;;;;;;;93.22;67.57;;;;;;;9.07;59.04;102509.25;5049367;28;20464;-74
2022/12/31 10:10:05;;;;;;;73.07;54.05;;;;;;;9.23;58.25;102511.59;5037693;28;20393;-75
2022/12/31 10:12:46;;;;;;;77.80;56.40;;;;;;;9.32;58.43;102516.19;5050797;28;20383;-76
2022/12/31 10:15:45;;;;;;;75.95;61.40;;;;;;;9.39;58.29;102498.88;5050375;28;20418;-75
2022/12/31 10:18:48;;;;;;;68.60;47.35;;;;;;;9.44;57.89;102509.94;5048228;28;20373;-75
2022/12/31 10:21:33;;;;;;;60.17;45.55;;;;;;;9.52;57.95;102504.88;5043902;28;20423;-74
2022/12/31 10:24:20;;;;;;;62.00;44.03;;;;;;;9.58;57.94;102495.66;5046084;28;20376;-74
2022/12/31 10:26:58;;;;;;;59.42;41.72;;;;;;;9.68;57.54;102493.13;5046653;28;20857;-75
2022/12/31 10:29:56;;;;;;;57.10;41.80;;;;;;;9.75;57.94;102492.50;5047394;28;20463;-74
2022/12/31 10:32:51;;;;;;;50.55;36.90;;;;;;;9.73;57.10;102496.25;5046283;28;20411;-75
2022/12/31 10:35:35;;;;;;;63.92;43.75;;;;;;;9.84;57.75;102488.28;5047793;28;20962;-75
2022/12/31 10:38:30;;;;;;;50.63;39.33;;;;;;;9.92;56.96;102485.88;5047750;28;20395;-75
2022/12/31 10:41:20;;;;;;;52.35;40.80;;;;;;;9.94;56.77;102481.31;5048578;28;20419;-74
2022/12/31 10:44:10;;;;;;;53.83;40.22;;;;;;;10.05;57.31;102484.91;5046667;28;20784;-73
2022/12/31 10:46:57;;;;;;;52.33;40.15;;;;;;;10.20;57.14;102470.41;5073741;28;20389;-74
2022/12/31 10:49:41;;;;;;;64.40;54.08;;;;;;;10.41;56.76;102464.38;5043123;28;20428;-77
2022/12/31 10:52:51;;;;;;;92.80;83.97;;;;;;;10.52;56.15;102461.69;5045318;28;20376;-75
2022/12/31 10:55:32;;;;;;;53.60;41.22;;;;;;;10.66;56.46;102469.34;5040866;28;20401;-74
2022/12/31 10:58:16;;;;;;;48.88;40.95;;;;;;;10.79;56.00;102465.66;5049505;28;20434;-75
2022/12/31 11:01:06;;;;;;;54.17;41.95;;;;;;;10.89;55.97;102459.47;5049502;28;20454;-76
2022/12/31 11:03:44;;;;;;;54.38;42.38;;;;;;;11.06;55.92;102465.97;5049354;28;20853;-74
2022/12/31 11:06:44;;;;;;;48.97;38.88;;;;;;;11.09;55.40;102467.53;5048379;28;20380;-75
2022/12/31 11:09:42;;;;;;;50.80;39.00;;;;;;;11.12;55.35;102461.13;5043400;28;20393;-73
2022/12/31 11:12:44;;;;;;;58.78;43.65;;;;;;;11.24;55.29;102458.25;5040311;28;20399;-76
2022/12/31 11:15:19;;;;;;;52.47;40.03;;;;;;;11.37;55.33;102457.22;5043094;28;21059;-76
2022/12/31 11:18:06;;;;;;;60.22;45.38;;;;;;;11.46;55.24;102451.94;5069426;28;20401;-75
2022/12/31 11:20:54;;;;;;;56.78;41.75;;;;;;;11.52;55.06;102439.94;5043780;28;20814;-74
2022/12/31 11:23:40;;;;;;;54.88;42.95;;;;;;;11.58;55.08;102441.25;5047686;28;20415;-75
2022/12/31 11:26:31;;;;;;;95.35;71.75;;;;;;;11.70;55.02;102434.84;5046920;28;20410;-74
2022/12/31 11:29:22;;;;;;;68.43;48.85;;;;;;;11.76;55.09;102428.16;5047685;28;20711;-73
2022/12/31 11:31:53;;;;;;;64.63;50.25;;;;;;;11.86;54.93;102431.66;5050568;28;20377;-78
2022/12/31 11:34:37;;;;;;;62.05;46.67;;;;;;;11.90;54.99;102432.22;5043277;28;20388;-77
2022/12/31 11:37:35;;;;;;;61.40;45.88;;;;;;;11.94;55.02;102428.34;5053617;28;20399;-76
2022/12/31 11:40:27;;;;;;;64.05;47.25;;;;;;;12.04;54.87;102432.69;5045170;28;20391;-75
2022/12/31 11:43:00;;;;;;;59.58;46.60;;;;;;;12.14;54.71;102440.72;5048782;28;20396;-76
2022/12/31 11:46:06;;;;;;;57.73;43.73;;;;;;;12.25;54.43;102442.41;5053105;28;20468;-75
2022/12/31 11:48:37;;;;;;;59.40;44.42;;;;;;;12.29;54.15;102438.47;5050437;28;20389;-75
2022/12/31 11:51:35;;;;;;;59.45;44.33;;;;;;;12.28;54.35;102455.44;5050754;28;20402;-76
2022/12/31 11:54:23;;;;;;;66.82;47.03;;;;;;;12.32;53.69;102448.84;5044377;28;20388;-76